Terminal Aerodrome Forecast
Issued by NWS

Home | Current Version | Previous Version | Text Only | Print | Product List | Glossary On
Versions: 1 2 3 4 5 6 7 8 9 10 11 12 13
000
FTUS45 KFGZ 071724
TAFSEZ
TAF
KSEZ 071724Z 0718/0818 22008KT P6SM SCT120
      TEMPO 0718/0722 6SM -TSRA BKN100CB
     FM080300 04008KT P6SM FEW140=

USA.gov is the U.S. government's official web portal to all federal, state and local government web resources and services.